createdAt,value
2022-10-11T00:00:06.309Z,8.90
2022-10-11T00:02:33.051Z,7.57
2022-10-11T00:04:59.793Z,12.95
2022-10-11T00:07:26.851Z,12.20
2022-10-11T00:09:53.652Z,11.48
2022-10-11T00:12:20.428Z,10.90
2022-10-11T00:14:47.235Z,12.73
2022-10-11T00:17:14.694Z,13.02
2022-10-11T00:19:41.524Z,11.27
2022-10-11T00:22:08.308Z,13.15
2022-10-11T00:24:35.491Z,20.95
2022-10-11T00:27:02.265Z,15.73
2022-10-11T00:29:29.035Z,14.45
2022-10-11T00:31:56.091Z,8.48
2022-10-11T00:34:22.904Z,9.60
2022-10-11T00:36:49.760Z,12.80
2022-10-11T00:39:16.629Z,6.88
2022-10-11T00:41:43.400Z,12.63
2022-10-11T00:44:24.760Z,8.48
2022-10-11T00:46:57.899Z,10.85
2022-10-11T00:49:55.299Z,13.68
2022-10-11T00:52:40.452Z,10.95
2022-10-11T00:55:12.590Z,9.23
2022-10-11T00:57:43.871Z,10.45
2022-10-11T01:00:13.673Z,9.50
2022-10-11T01:02:41.931Z,9.82
2022-10-11T01:05:28.620Z,9.75
2022-10-11T01:07:56.444Z,10.63
2022-10-11T01:10:23.463Z,10.27
2022-10-11T01:13:13.592Z,9.95
2022-10-11T01:16:00.545Z,11.38
2022-10-11T01:18:32.767Z,14.48
2022-10-11T01:21:42.491Z,7.90
2022-10-11T01:24:30.247Z,11.95
2022-10-11T01:27:26.081Z,9.95
2022-10-11T01:29:55.703Z,12.55
2022-10-11T01:32:33.900Z,11.93
2022-10-11T01:35:22.299Z,12.90
2022-10-11T01:38:13.436Z,11.07
2022-10-11T01:40:48.900Z,10.60
2022-10-11T01:43:16.706Z,9.55
2022-10-11T01:45:44.558Z,9.52
2022-10-11T01:48:13.570Z,15.60
2022-10-11T01:50:43.363Z,13.80
2022-10-11T01:53:18.290Z,13.45
2022-10-11T01:55:53.933Z,12.43
2022-10-11T01:58:37.144Z,15.93
2022-10-11T02:01:26.128Z,9.65
2022-10-11T02:04:09.349Z,8.75
2022-10-11T02:06:49.018Z,13.93
2022-10-11T02:09:41.658Z,15.48
2022-10-11T02:12:12.794Z,20.00
2022-10-11T02:14:43.709Z,15.75
2022-10-11T02:17:21.672Z,14.25
2022-10-11T02:19:52.568Z,19.73
2022-10-11T02:22:26.732Z,16.98
2022-10-11T02:24:56.551Z,14.73
2022-10-11T02:27:27.569Z,11.18
2022-10-11T02:29:57.259Z,17.05
2022-10-11T02:32:25.745Z,10.52
2022-10-11T02:34:58.685Z,16.63
2022-10-11T02:38:01.740Z,16.02
2022-10-11T02:40:35.111Z,15.43
2022-10-11T02:43:17.990Z,13.32
2022-10-11T02:45:49.790Z,11.70
2022-10-11T02:48:17.886Z,13.57
2022-10-11T02:50:44.804Z,10.23
2022-10-11T02:53:11.625Z,11.75
2022-10-11T02:55:38.509Z,9.68
2022-10-11T02:58:05.285Z,10.60
2022-10-11T03:00:32.112Z,7.93
2022-10-11T03:03:01.873Z,12.80
2022-10-11T03:05:28.886Z,12.45
2022-10-11T03:07:55.810Z,10.10
2022-10-11T03:10:22.568Z,9.38
2022-10-11T03:12:49.339Z,11.60
2022-10-11T03:15:22.196Z,15.63
2022-10-11T03:17:49.340Z,11.07
2022-10-11T03:20:16.188Z,17.38
2022-10-11T03:22:43.149Z,16.13
2022-10-11T03:25:10.026Z,12.07
2022-10-11T03:27:36.817Z,15.35
2022-10-11T03:30:07.218Z,12.48
2022-10-11T03:32:34.550Z,10.63
2022-10-11T03:35:04.090Z,16.67
2022-10-11T03:37:30.930Z,15.30
2022-10-11T03:39:57.715Z,16.98
2022-10-11T03:42:24.610Z,15.23
2022-10-11T03:44:55.033Z,15.40
2022-10-11T03:47:21.773Z,19.60
2022-10-11T03:49:48.524Z,13.02
2022-10-11T03:52:15.348Z,14.13
2022-10-11T03:54:42.123Z,17.00
2022-10-11T03:57:08.908Z,12.43
2022-10-11T03:59:35.870Z,10.60
2022-10-11T04:02:02.748Z,11.55
2022-10-11T04:04:29.636Z,9.70
2022-10-11T04:06:56.400Z,13.07
2022-10-11T04:09:23.253Z,13.32
2022-10-11T04:11:50.043Z,15.07
2022-10-11T04:14:17.160Z,14.10
2022-10-11T04:16:43.975Z,17.98
2022-10-11T04:19:10.808Z,11.32
2022-10-11T04:21:37.595Z,12.57
2022-10-11T04:24:04.692Z,14.15
2022-10-11T04:26:31.630Z,16.67
2022-10-11T04:28:58.520Z,14.25
2022-10-11T04:31:25.409Z,19.15
2022-10-11T04:33:52.208Z,20.48
2022-10-11T04:36:18.984Z,20.58
2022-10-11T04:38:45.776Z,21.85
2022-10-11T04:41:14.482Z,14.82
2022-10-11T04:43:41.748Z,15.43
2022-10-11T04:46:09.770Z,15.98
2022-10-11T04:48:37.116Z,22.88
2022-10-11T04:51:04.134Z,19.65
2022-10-11T04:53:31.006Z,14.55
2022-10-11T04:56:04.352Z,16.55
2022-10-11T04:58:33.143Z,17.90
2022-10-11T05:01:00.294Z,20.17
2022-10-11T05:03:28.926Z,17.27
2022-10-11T05:05:55.781Z,15.20
2022-10-11T05:08:25.541Z,16.20
2022-10-11T05:11:06.773Z,23.73
2022-10-11T05:13:34.985Z,16.77
2022-10-11T05:16:04.013Z,17.02
2022-10-11T05:18:34.189Z,16.15
2022-10-11T05:21:21.139Z,21.33
2022-10-11T05:23:49.865Z,18.75
2022-10-11T05:26:18.145Z,17.10
2022-10-11T05:28:45.699Z,17.45
2022-10-11T05:31:13.171Z,15.25
2022-10-11T05:33:40.234Z,20.02
2022-10-11T05:36:08.230Z,17.98
2022-10-11T05:38:36.147Z,17.80
2022-10-11T05:41:04.254Z,27.60
2022-10-11T05:43:31.555Z,15.05
2022-10-11T05:45:58.610Z,13.77
2022-10-11T05:48:26.772Z,16.60
2022-10-11T05:50:58.330Z,23.65
2022-10-11T05:53:25.193Z,19.42
2022-10-11T05:55:52.055Z,20.25
2022-10-11T05:58:19.463Z,15.38
2022-10-11T06:00:46.258Z,17.33
2022-10-11T06:03:13.794Z,16.35
2022-10-11T06:05:40.928Z,16.52
2022-10-11T06:08:08.762Z,13.90
2022-10-11T06:10:36.840Z,16.90
2022-10-11T06:13:03.721Z,19.08
2022-10-11T06:15:31.398Z,14.13
2022-10-11T06:17:59.271Z,13.82
2022-10-11T06:20:27.106Z,14.05
2022-10-11T06:22:54.288Z,9.68
2022-10-11T06:25:21.194Z,12.88
2022-10-11T06:27:47.940Z,9.32
2022-10-11T06:30:15.137Z,10.57
2022-10-11T06:32:41.953Z,11.82
2022-10-11T06:35:09.326Z,11.90
2022-10-11T06:37:36.188Z,11.98
2022-10-11T06:40:03.730Z,10.27
2022-10-11T06:42:30.601Z,9.40
2022-10-11T06:44:57.373Z,12.15
2022-10-11T06:47:24.147Z,10.23
2022-10-11T06:49:51.016Z,10.60
2022-10-11T06:52:17.830Z,13.02
2022-10-11T06:54:45.610Z,13.90
2022-10-11T06:57:12.632Z,10.77
2022-10-11T06:59:39.610Z,16.10
2022-10-11T07:02:06.856Z,10.35
2022-10-11T07:04:34.010Z,15.00
2022-10-11T07:07:01.182Z,14.35
2022-10-11T07:09:28.077Z,15.60
2022-10-11T07:11:54.886Z,17.30
2022-10-11T07:14:21.726Z,20.48
2022-10-11T07:16:48.554Z,17.83
2022-10-11T07:19:15.529Z,20.55
2022-10-11T07:21:42.390Z,21.92
2022-10-11T07:24:09.234Z,21.80
2022-10-11T07:26:38.175Z,22.85
2022-10-11T07:29:07.413Z,22.77
2022-10-11T07:31:34.466Z,19.48
2022-10-11T07:34:01.324Z,19.92
2022-10-11T07:36:28.172Z,20.17
2022-10-11T07:38:55.086Z,20.63
2022-10-11T07:41:21.975Z,21.58
2022-10-11T07:43:49.793Z,25.65
2022-10-11T07:46:19.666Z,21.55
2022-10-11T07:48:46.604Z,25.75
2022-10-11T07:51:17.785Z,25.67
2022-10-11T07:53:56.390Z,22.17
2022-10-11T07:56:26.604Z,24.33
2022-10-11T07:58:59.356Z,23.73
2022-10-11T08:01:27.698Z,22.40
2022-10-11T08:03:56.942Z,26.08
2022-10-11T08:06:27.323Z,26.13
2022-10-11T08:08:54.103Z,27.67
2022-10-11T08:11:30.003Z,23.13
2022-10-11T08:13:58.503Z,31.42
2022-10-11T08:16:25.767Z,29.25
2022-10-11T08:18:54.536Z,30.02
2022-10-11T08:21:21.586Z,30.00
2022-10-11T08:23:48.494Z,23.88
2022-10-11T08:26:15.894Z,24.52
2022-10-11T08:28:42.993Z,25.17
2022-10-11T08:31:15.802Z,33.50
2022-10-11T08:33:43.150Z,28.10
2022-10-11T08:36:11.123Z,27.83
2022-10-11T08:38:38.975Z,31.33
2022-10-11T08:41:26.921Z,36.53
2022-10-11T08:44:12.743Z,28.38
2022-10-11T08:46:42.238Z,33.47
2022-10-11T08:49:13.348Z,29.48
2022-10-11T08:51:47.480Z,31.70
2022-10-11T08:54:49.524Z,34.40
2022-10-11T08:57:27.888Z,30.05
2022-10-11T08:59:58.911Z,33.53
2022-10-11T09:02:55.804Z,31.45
2022-10-11T09:05:25.448Z,29.73
2022-10-11T09:07:57.924Z,29.58
2022-10-11T09:10:51.453Z,31.75
2022-10-11T09:13:35.730Z,28.80
2022-10-11T09:16:11.430Z,33.50
2022-10-11T09:19:01.035Z,31.65
2022-10-11T09:21:51.763Z,29.67
2022-10-11T09:24:39.213Z,27.20
2022-10-11T09:27:50.408Z,38.30
2022-10-11T09:30:19.681Z,38.20
2022-10-11T09:33:08.130Z,35.63
2022-10-11T09:35:44.464Z,32.03
2022-10-11T09:38:33.474Z,31.67
2022-10-11T09:41:03.306Z,32.67
2022-10-11T09:43:30.799Z,34.35
2022-10-11T09:45:57.883Z,47.47
2022-10-11T09:48:30.609Z,33.17
2022-10-11T09:51:05.059Z,40.88
2022-10-11T09:53:56.470Z,33.17
2022-10-11T09:56:25.996Z,34.75
2022-10-11T09:59:26.406Z,31.67
2022-10-11T10:02:23.119Z,32.20
2022-10-11T10:04:56.028Z,34.80
2022-10-11T10:07:23.900Z,41.70
2022-10-11T10:09:51.068Z,36.40
2022-10-11T10:12:25.950Z,37.47
2022-10-11T10:15:05.138Z,38.42
2022-10-11T10:17:32.612Z,38.78
2022-10-11T10:20:00.681Z,39.15
2022-10-11T10:22:33.469Z,43.22
2022-10-11T10:25:06.332Z,36.90
2022-10-11T10:27:33.399Z,39.72
2022-10-11T10:30:09.167Z,46.45
2022-10-11T10:32:50.710Z,32.88
2022-10-11T10:35:38.087Z,37.15
2022-10-11T10:38:33.112Z,39.10
2022-10-11T10:41:11.735Z,42.60
2022-10-11T10:43:40.851Z,41.08
2022-10-11T10:46:28.162Z,38.90
2022-10-11T10:49:51.947Z,35.42
2022-10-11T10:52:53.007Z,44.65
2022-10-11T10:55:41.819Z,39.95
2022-10-11T10:58:27.140Z,43.40
2022-10-11T11:01:04.174Z,37.88
2022-10-11T11:04:06.032Z,42.63
2022-10-11T11:06:46.603Z,41.78
2022-10-11T11:09:37.012Z,31.17
2022-10-11T11:12:25.453Z,33.92
2022-10-11T11:15:01.623Z,34.90
2022-10-11T11:17:49.539Z,35.60
2022-10-11T11:20:19.324Z,31.55
2022-10-11T11:23:11.754Z,26.50
2022-10-11T11:26:03.584Z,26.23
2022-10-11T11:28:55.508Z,28.63
2022-10-11T11:31:31.405Z,24.00
2022-10-11T11:34:16.454Z,21.10
2022-10-11T11:36:55.646Z,24.00
2022-10-11T11:39:46.701Z,21.92
2022-10-11T11:42:34.225Z,21.98
2022-10-11T11:45:12.271Z,22.55
2022-10-11T11:47:43.380Z,20.63
2022-10-11T11:50:15.227Z,21.98
2022-10-11T11:52:46.880Z,21.33
2022-10-11T11:55:43.407Z,22.40
2022-10-11T11:58:21.793Z,25.83
2022-10-11T12:01:15.640Z,20.83
2022-10-11T12:03:47.406Z,27.75
2022-10-11T12:06:14.519Z,21.95
2022-10-11T12:09:03.925Z,21.10
2022-10-11T12:11:50.973Z,23.23
2022-10-11T12:14:35.396Z,19.42
2022-10-11T12:17:10.175Z,18.65
2022-10-11T12:19:39.793Z,17.20
2022-10-11T12:22:28.472Z,17.27
2022-10-11T12:25:18.503Z,19.10
2022-10-11T12:27:47.390Z,17.80
2022-10-11T12:30:48.213Z,17.95
2022-10-11T12:33:25.374Z,21.63
2022-10-11T12:35:55.286Z,14.73
2022-10-11T12:38:24.810Z,14.60
2022-10-11T12:40:57.014Z,14.77
2022-10-11T12:43:33.291Z,22.45
2022-10-11T12:46:27.808Z,22.25
2022-10-11T12:49:22.646Z,14.65
2022-10-11T12:52:00.126Z,15.40
2022-10-11T12:54:54.308Z,15.30
2022-10-11T12:57:42.548Z,16.50
2022-10-11T13:00:26.280Z,18.60
2022-10-11T13:02:53.062Z,20.73
2022-10-11T13:05:30.243Z,16.55
2022-10-11T13:07:59.209Z,13.00
2022-10-11T13:10:42.534Z,16.38
2022-10-11T13:13:21.908Z,16.85
2022-10-11T13:15:49.545Z,16.80
2022-10-11T13:18:17.812Z,17.00
2022-10-11T13:20:45.054Z,21.23
2022-10-11T13:23:38.747Z,15.95
2022-10-11T13:26:05.835Z,18.27
2022-10-11T13:28:36.282Z,20.50
2022-10-11T13:31:04.388Z,20.05
2022-10-11T13:33:34.695Z,19.95
2022-10-11T13:36:04.222Z,19.85
2022-10-11T13:38:34.078Z,21.17
2022-10-11T13:41:05.951Z,22.77
2022-10-11T13:43:34.149Z,19.08
2022-10-11T13:46:04.979Z,24.23
2022-10-11T13:48:38.559Z,20.67
2022-10-11T13:51:33.907Z,21.33
2022-10-11T13:54:13.152Z,23.80
2022-10-11T13:56:46.048Z,17.35
2022-10-11T13:59:25.568Z,18.63
2022-10-11T14:01:59.094Z,22.13
2022-10-11T14:04:29.519Z,21.10
2022-10-11T14:07:02.726Z,19.48
2022-10-11T14:09:35.631Z,21.05
2022-10-11T14:12:29.346Z,21.48
2022-10-11T14:14:57.444Z,18.17
2022-10-11T14:17:38.646Z,19.50
2022-10-11T14:20:12.019Z,21.85
2022-10-11T14:22:39.454Z,25.75
2022-10-11T14:25:06.552Z,20.85
2022-10-11T14:27:33.596Z,23.13
2022-10-11T14:30:24.484Z,22.00
2022-10-11T14:32:50.688Z,21.05
2022-10-11T14:35:30.377Z,26.10
2022-10-11T14:37:57.635Z,22.55
2022-10-11T14:40:27.349Z,19.58
2022-10-11T14:42:54.904Z,21.70
2022-10-11T14:45:21.772Z,19.23
2022-10-11T14:47:49.309Z,24.63
2022-10-11T14:50:19.377Z,20.15
2022-10-11T14:52:46.845Z,22.42
2022-10-11T14:55:13.894Z,20.17
2022-10-11T14:57:40.678Z,16.27
2022-10-11T15:00:16.818Z,20.65
2022-10-11T15:02:43.679Z,23.00
2022-10-11T15:05:11.242Z,23.15
2022-10-11T15:07:38.046Z,24.10
2022-10-11T15:10:17.574Z,18.15
2022-10-11T15:12:44.508Z,25.13
2022-10-11T15:15:16.149Z,25.65
2022-10-11T15:17:43.681Z,30.58
2022-10-11T15:20:41.971Z,25.35
2022-10-11T15:23:09.919Z,33.70
2022-10-11T15:25:38.847Z,26.83
2022-10-11T15:28:07.142Z,27.90
2022-10-11T15:30:41.092Z,29.70
2022-10-11T15:33:08.379Z,24.35
2022-10-11T15:35:35.234Z,24.98
2022-10-11T15:38:02.511Z,27.98
2022-10-11T15:40:37.098Z,27.02
2022-10-11T15:43:04.299Z,27.45
2022-10-11T15:45:31.477Z,29.95
2022-10-11T15:47:58.532Z,25.70
2022-10-11T15:50:41.561Z,29.30
2022-10-11T15:53:14.194Z,23.58
2022-10-11T15:55:47.582Z,23.15
2022-10-11T15:58:17.050Z,24.27
2022-10-11T16:00:45.758Z,29.30
2022-10-11T16:03:13.722Z,34.13
2022-10-11T16:05:41.098Z,29.85
2022-10-11T16:08:08.328Z,27.35
2022-10-11T16:10:37.496Z,25.02
2022-10-11T16:13:05.000Z,30.20
2022-10-11T16:15:32.183Z,28.92
2022-10-11T16:17:59.097Z,29.95
2022-10-11T16:20:25.983Z,26.50
2022-10-11T16:22:54.398Z,29.02
2022-10-11T16:25:22.158Z,25.25
2022-10-11T16:27:49.373Z,29.95
2022-10-11T16:30:17.432Z,25.58
2022-10-11T16:32:44.907Z,22.52
2022-10-11T16:35:13.193Z,28.15
2022-10-11T16:37:39.964Z,24.45
2022-10-11T16:40:08.200Z,25.42
2022-10-11T16:42:35.662Z,27.23
2022-10-11T16:45:02.494Z,32.63
2022-10-11T16:47:29.267Z,32.00
2022-10-11T16:49:56.153Z,26.80
2022-10-11T16:52:22.950Z,30.88
2022-10-11T16:54:49.804Z,26.88
2022-10-11T16:57:18.425Z,23.95
2022-10-11T16:59:45.829Z,25.52
2022-10-11T17:02:17.068Z,27.75
2022-10-11T17:04:44.412Z,28.08
2022-10-11T17:07:14.715Z,26.75
2022-10-11T17:09:45.836Z,28.88
2022-10-11T17:12:14.155Z,26.92
2022-10-11T17:14:42.460Z,27.75
2022-10-11T17:17:10.945Z,27.83
2022-10-11T17:19:45.071Z,28.10
2022-10-11T17:22:14.515Z,24.98
2022-10-11T17:24:41.699Z,25.77
2022-10-11T17:27:08.771Z,24.95
2022-10-11T17:29:35.996Z,31.38
2022-10-11T17:32:03.016Z,26.55
2022-10-11T17:34:29.867Z,30.02
2022-10-11T17:36:56.708Z,29.17
2022-10-11T17:39:25.277Z,31.60
2022-10-11T17:41:52.440Z,26.48
2022-10-11T17:44:19.943Z,34.10
2022-10-11T17:46:47.382Z,28.00
2022-10-11T17:49:14.682Z,24.02
2022-10-11T17:51:42.619Z,25.52
2022-10-11T17:54:12.817Z,28.30
2022-10-11T17:56:41.511Z,28.08
2022-10-11T17:59:15.890Z,28.30
2022-10-11T18:01:43.020Z,30.52
2022-10-11T18:04:16.430Z,29.92
2022-10-11T18:06:45.077Z,25.55
2022-10-11T18:09:13.334Z,28.02
2022-10-11T18:11:40.102Z,30.13
2022-10-11T18:14:07.210Z,28.98
2022-10-11T18:16:35.665Z,29.40
2022-10-11T18:19:05.266Z,27.85
2022-10-11T18:21:34.485Z,32.08
2022-10-11T18:24:03.370Z,28.23
2022-10-11T18:26:30.847Z,28.20
2022-10-11T18:28:58.594Z,32.63
2022-10-11T18:31:27.970Z,26.38
2022-10-11T18:33:55.144Z,30.27
2022-10-11T18:36:24.897Z,32.65
2022-10-11T18:38:57.196Z,32.47
2022-10-11T18:41:30.611Z,33.72
2022-10-11T18:44:05.933Z,33.45
2022-10-11T18:46:33.302Z,34.80
2022-10-11T18:49:01.943Z,29.52
2022-10-11T18:51:31.464Z,31.05
2022-10-11T18:53:58.844Z,32.10
2022-10-11T18:56:27.141Z,34.42
2022-10-11T18:58:56.198Z,28.15
2022-10-11T19:01:53.890Z,32.58
2022-10-11T19:04:20.980Z,29.63
2022-10-11T19:06:49.441Z,27.58
2022-10-11T19:09:21.687Z,36.10
2022-10-11T19:11:50.457Z,29.35
2022-10-11T19:14:19.594Z,34.65
2022-10-11T19:16:51.315Z,32.67
2022-10-11T19:19:24.236Z,31.52
2022-10-11T19:21:51.366Z,31.15
2022-10-11T19:24:20.426Z,32.72
2022-10-11T19:26:47.877Z,33.58
2022-10-11T19:29:20.427Z,30.48
2022-10-11T19:31:50.140Z,31.45
2022-10-11T19:34:17.104Z,34.78
2022-10-11T19:36:44.430Z,28.80
2022-10-11T19:39:15.500Z,32.53
2022-10-11T19:41:43.645Z,31.67
2022-10-11T19:44:12.282Z,32.63
2022-10-11T19:46:54.882Z,34.17
2022-10-11T19:49:24.934Z,36.88
2022-10-11T19:51:53.755Z,37.55
2022-10-11T19:54:20.618Z,34.28
2022-10-11T19:56:48.147Z,37.40
2022-10-11T19:59:15.375Z,37.83
2022-10-11T20:01:46.673Z,38.30
2022-10-11T20:04:39.588Z,38.47
2022-10-11T20:07:03.484Z,32.97
2022-10-11T20:09:31.078Z,31.77
2022-10-11T20:11:58.478Z,39.42
2022-10-11T20:14:25.409Z,37.20
2022-10-11T20:16:52.375Z,34.75
2022-10-11T20:19:20.111Z,34.72
2022-10-11T20:21:47.700Z,36.28
2022-10-11T20:24:14.595Z,36.20
2022-10-11T20:26:41.748Z,39.92
2022-10-11T20:29:08.806Z,42.33
2022-10-11T20:31:40.800Z,37.30
2022-10-11T20:34:08.056Z,42.13
2022-10-11T20:36:36.149Z,40.95
2022-10-11T20:39:05.271Z,36.35
2022-10-11T20:41:39.603Z,45.53
2022-10-11T20:44:07.387Z,39.58
2022-10-11T20:46:37.490Z,40.65
2022-10-11T20:49:10.418Z,42.90
2022-10-11T20:51:38.889Z,46.80
2022-10-11T20:54:06.156Z,50.25
2022-10-11T20:56:33.914Z,43.22
2022-10-11T20:59:01.412Z,45.85
2022-10-11T21:01:34.609Z,39.63
2022-10-11T21:04:02.090Z,40.28
2022-10-11T21:06:29.978Z,48.05
2022-10-11T21:08:59.064Z,45.40
2022-10-11T21:11:31.258Z,45.08
2022-10-11T21:14:03.442Z,44.45
2022-10-11T21:16:30.922Z,37.40
2022-10-11T21:18:59.711Z,46.85
2022-10-11T21:21:28.089Z,43.78
2022-10-11T21:23:56.837Z,49.47
2022-10-11T21:26:24.075Z,46.85
2022-10-11T21:28:51.325Z,54.05
2022-10-11T21:31:19.801Z,42.63
2022-10-11T21:33:46.996Z,57.90
2022-10-11T21:36:19.433Z,44.42
2022-10-11T21:38:46.597Z,42.97
2022-10-11T21:41:16.320Z,47.75
2022-10-11T21:43:43.856Z,53.92
2022-10-11T21:46:22.626Z,43.85
2022-10-11T21:48:50.150Z,47.67
2022-10-11T21:51:22.037Z,49.45
2022-10-11T21:53:48.928Z,46.63
2022-10-11T21:56:16.010Z,45.70
2022-10-11T21:58:42.947Z,43.65
2022-10-11T22:01:11.518Z,42.75
2022-10-11T22:03:38.526Z,44.35
2022-10-11T22:06:05.700Z,47.05
2022-10-11T22:08:33.130Z,48.40
2022-10-11T22:11:02.268Z,46.67
2022-10-11T22:13:33.581Z,45.95
2022-10-11T22:16:05.300Z,44.15
2022-10-11T22:18:33.767Z,47.95
2022-10-11T22:21:08.420Z,41.85
2022-10-11T22:23:35.373Z,46.75
2022-10-11T22:26:07.010Z,48.50
2022-10-11T22:28:34.479Z,44.40
2022-10-11T22:31:01.572Z,47.33
2022-10-11T22:33:28.597Z,49.80
2022-10-11T22:36:00.645Z,52.60
2022-10-11T22:38:28.011Z,51.35
2022-10-11T22:40:57.902Z,47.85
2022-10-11T22:43:24.698Z,48.35
2022-10-11T22:45:51.667Z,46.55
2022-10-11T22:48:18.523Z,44.20
2022-10-11T22:50:45.297Z,45.97
2022-10-11T22:53:13.874Z,43.17
2022-10-11T22:55:40.836Z,53.03
2022-10-11T22:58:07.606Z,51.30
2022-10-11T23:00:34.457Z,49.35
2022-10-11T23:03:01.222Z,55.72
2022-10-11T23:05:28.050Z,50.22
2022-10-11T23:07:54.832Z,45.05
2022-10-11T23:10:21.676Z,50.03
2022-10-11T23:12:48.457Z,51.60
2022-10-11T23:15:15.713Z,49.88
2022-10-11T23:17:42.644Z,48.67
2022-10-11T23:20:10.294Z,52.28
2022-10-11T23:22:37.104Z,51.95
2022-10-11T23:25:04.682Z,51.58
2022-10-11T23:27:31.559Z,46.33
2022-10-11T23:29:58.755Z,53.72
2022-10-11T23:32:25.581Z,50.78
2022-10-11T23:34:52.361Z,60.90
2022-10-11T23:37:19.218Z,50.13
2022-10-11T23:39:46.000Z,46.50
2022-10-11T23:42:13.031Z,45.55
2022-10-11T23:44:40.976Z,47.95
2022-10-11T23:47:07.837Z,60.03
2022-10-11T23:49:34.704Z,50.85
2022-10-11T23:52:01.553Z,53.13
2022-10-11T23:54:28.370Z,55.13
2022-10-11T23:56:55.111Z,54.58
2022-10-11T23:59:22.021Z,53.00
